Time;durP1;ratioP1;P1;durP2;ratioP2;P2;SDS_P1;SDS_P2;PMS_P1;PMS_P2;Temp;Humidity;BMP_temperature;BMP_pressure;BME280_temperature;BME280_humidity;BME280_pressure;Samples;Min_cycle;Max_cycle;Signal;HPM_P1;HPM_P2
2021/01/23 00:01:35;;;;;;;;;;;;;;;17.77;57.28;100190.81;4949820;29;795;-69
2021/01/23 00:04:01;;;;;;;;;;;;;;;17.75;56.93;100187.41;4949829;29;1700;-69
2021/01/23 00:06:27;;;;;;;;;;;;;;;17.74;56.88;100183.13;4932577;29;1289;-68
2021/01/23 00:08:53;;;;;;;;;;;;;;;17.74;56.78;100184.91;4949916;29;1191;-69
2021/01/23 00:11:20;;;;;;;;;;;;;;;17.76;57.09;100181.22;4932551;29;1975;-68
2021/01/23 00:13:46;;;;;;;;;;;;;;;17.73;57.07;100189.31;4950030;29;1304;-68
2021/01/23 00:16:12;;;;;;;;;;;;;;;17.76;57.25;100193.53;4949985;29;788;-69
2021/01/23 00:18:38;;;;;;;;;;;;;;;17.78;57.15;100205.66;4949662;29;1230;-69
2021/01/23 00:21:05;;;;;;;;;;;;;;;17.78;57.47;100200.41;4932656;29;828;-69
2021/01/23 00:23:31;;;;;;;;;;;;;;;17.73;57.14;100214.81;4948575;29;1319;-69
2021/01/23 00:25:57;;;;;;;;;;;;;;;17.72;56.87;100216.59;4949769;29;807;-70
2021/01/23 00:28:24;;;;;;;;;;;;;;;17.72;57.00;100221.84;4948155;29;1363;-72
2021/01/23 00:30:50;;;;;;;;;;;;;;;17.75;57.19;100229.56;4949906;29;1037;-69
2021/01/23 00:33:16;;;;;;;;;;;;;;;17.74;57.09;100225.25;4932282;29;1989;-68
2021/01/23 00:35:42;;;;;;;;;;;;;;;17.72;57.07;100235.03;4949240;29;764;-68
2021/01/23 00:38:09;;;;;;;;;;;;;;;17.71;57.10;100241.25;4947827;29;1244;-68
2021/01/23 00:40:35;;;;;;;;;;;;;;;17.72;57.12;100252.66;4949341;29;769;-70
2021/01/23 00:43:02;;;;;;;;;;;;;;;17.68;57.40;100243.22;4935598;29;1663;-67
2021/01/23 00:45:29;;;;;;;;;;;;;;;17.74;57.47;100258.66;4897461;29;1422;-67
2021/01/23 00:47:56;;;;;;;;;;;;;;;17.72;57.43;100269.25;4928089;29;1299;-67
2021/01/23 00:50:22;;;;;;;;;;;;;;;17.73;57.25;100275.38;4931174;29;944;-68
2021/01/23 00:52:48;;;;;;;;;;;;;;;17.70;57.41;100268.53;4931379;29;1911;-67
2021/01/23 00:55:15;;;;;;;;;;;;;;;17.66;57.48;100274.91;4914654;29;1199;-67
2021/01/23 00:57:42;;;;;;;;;;;;;;;17.66;57.39;100271.44;4931465;29;1216;-70
2021/01/23 01:00:08;;;;;;;;;;;;;;;17.65;57.27;100275.88;4931653;29;1190;-68
2021/01/23 01:02:35;;;;;;;;;;;;;;;17.63;57.44;100269.00;4930168;29;1203;-68
2021/01/23 01:05:03;;;;;;;;;;;;;;;17.62;57.77;100265.50;4931633;29;1397;-70
2021/01/23 01:07:29;;;;;;;;;;;;;;;17.62;57.33;100265.50;4913905;29;1324;-69
2021/01/23 01:09:55;;;;;;;;;;;;;;;17.61;57.56;100258.53;4931622;29;1074;-68
2021/01/23 01:12:21;;;;;;;;;;;;;;;17.62;57.60;100257.59;4931693;29;1973;-68
2021/01/23 01:14:47;;;;;;;;;;;;;;;17.59;57.77;100255.16;4931849;29;1160;-67
2021/01/23 01:17:14;;;;;;;;;;;;;;;17.58;57.90;100256.09;4931387;29;795;-67
2021/01/23 01:19:41;;;;;;;;;;;;;;;17.59;57.74;100260.44;4913825;29;1362;-67
2021/01/23 01:22:08;;;;;;;;;;;;;;;17.58;57.62;100264.00;4931631;29;969;-68
2021/01/23 01:24:34;;;;;;;;;;;;;;;17.57;57.88;100262.28;4931039;29;1250;-69
2021/01/23 01:27:00;;;;;;;;;;;;;;;17.57;57.86;100261.47;4931690;29;1285;-69
2021/01/23 01:29:27;;;;;;;;;;;;;;;17.55;57.94;100258.91;4931162;29;1230;-68
2021/01/23 01:31:53;;;;;;;;;;;;;;;17.54;57.58;100257.16;4931518;29;1907;-68
2021/01/23 01:34:20;;;;;;;;;;;;;;;17.53;57.79;100255.50;4932289;29;1314;-68
2021/01/23 01:36:46;;;;;;;;;;;;;;;17.52;57.72;100258.19;4917639;29;1298;-69
2021/01/23 01:39:12;;;;;;;;;;;;;;;17.52;57.90;100253.78;4934844;29;1222;-68
2021/01/23 01:41:39;;;;;;;;;;;;;;;17.52;57.54;100261.69;4917738;29;940;-70
2021/01/23 01:44:06;;;;;;;;;;;;;;;17.49;57.88;100265.34;4934817;29;1182;-69
2021/01/23 01:46:33;;;;;;;;;;;;;;;17.51;58.07;100267.88;4902052;29;1347;-69
2021/01/23 01:49:01;;;;;;;;;;;;;;;17.47;57.66;100271.66;4934320;29;1159;-69
2021/01/23 01:51:28;;;;;;;;;;;;;;;17.48;57.69;100270.69;4934943;29;1057;-69
2021/01/23 01:53:55;;;;;;;;;;;;;;;17.47;57.72;100280.41;4934508;29;1327;-69
2021/01/23 01:56:21;;;;;;;;;;;;;;;17.44;57.91;100285.00;4933126;29;1323;-68
2021/01/23 01:58:48;;;;;;;;;;;;;;;17.43;58.15;100293.81;4934369;29;1242;-70
2021/01/23 02:01:14;;;;;;;;;;;;;;;17.47;57.95;100293.56;4934397;29;1057;-69
2021/01/23 02:03:44;;;;;;;;;;;;;;;17.45;58.06;100298.06;4934337;29;1198;-69
2021/01/23 02:06:19;;;;;;;;;;;;;;;17.45;57.92;100286.69;4934778;29;1043;-69
2021/01/23 02:08:59;;;;;;;;;;;;;;;17.45;58.17;100294.56;4934929;29;1226;-69
2021/01/23 02:11:44;;;;;;;;;;;;;;;17.41;57.87;100293.06;4934841;29;1046;-69
2021/01/23 02:14:13;;;;;;;;;;;;;;;17.44;58.28;100300.78;4934681;29;1206;-69
2021/01/23 02:16:43;;;;;;;;;;;;;;;17.39;58.12;100284.41;4934718;29;887;-70
2021/01/23 02:19:15;;;;;;;;;;;;;;;17.39;58.37;100290.50;4934257;29;1198;-69
2021/01/23 02:21:47;;;;;;;;;;;;;;;17.40;58.04;100280.84;4934213;29;1124;-69
2021/01/23 02:24:18;;;;;;;;;;;;;;;17.44;57.78;100277.09;4933839;29;1359;-69
2021/01/23 02:26:49;;;;;;;;;;;;;;;17.42;58.13;100277.16;4933918;29;1414;-68
2021/01/23 02:29:26;;;;;;;;;;;;;;;17.39;57.70;100281.75;4933954;29;1380;-68
2021/01/23 02:31:55;;;;;;;;;;;;;;;17.38;57.97;100283.56;4917131;29;1973;-68
2021/01/23 02:34:24;;;;;;;;;;;;;;;17.41;57.95;100287.81;4933618;29;1257;-68
2021/01/23 02:36:54;;;;;;;;;;;;;;;17.37;58.02;100289.78;4932846;29;1315;-70
2021/01/23 02:39:22;;;;;;;;;;;;;;;17.38;58.08;100275.69;4933262;29;1356;-68
2021/01/23 02:41:50;;;;;;;;;;;;;;;17.37;58.09;100283.66;4931843;29;1172;-68
2021/01/23 02:44:16;;;;;;;;;;;;;;;17.36;58.25;100285.44;4933715;29;1250;-69
2021/01/23 02:46:43;;;;;;;;;;;;;;;17.36;57.99;100279.31;4933492;29;892;-69
2021/01/23 02:49:09;;;;;;;;;;;;;;;17.38;58.39;100290.63;4933735;29;1242;-69
2021/01/23 02:51:49;;;;;;;;;;;;;;;17.37;58.11;100292.41;4933479;29;1910;-69
2021/01/23 02:54:20;;;;;;;;;;;;;;;17.36;57.90;100292.47;4933857;29;1384;-69
2021/01/23 02:56:47;;;;;;;;;;;;;;;17.36;58.05;100295.09;4933699;29;1010;-68
2021/01/23 02:59:14;;;;;;;;;;;;;;;17.34;58.31;100291.72;4916333;29;1281;-69
2021/01/23 03:01:42;;;;;;;;;;;;;;;17.32;58.13;100291.84;4933730;29;1142;-69
2021/01/23 03:04:09;;;;;;;;;;;;;;;17.30;57.93;100292.84;4916293;29;1448;-69
2021/01/23 03:06:38;;;;;;;;;;;;;;;17.29;58.09;100297.28;4932111;29;1059;-69
2021/01/23 03:09:20;;;;;;;;;;;;;;;17.33;57.94;100290.03;4933127;29;1242;-67
2021/01/23 03:11:47;;;;;;;;;;;;;;;17.35;57.89;100299.56;4932840;29;1911;-69
2021/01/23 03:14:14;;;;;;;;;;;;;;;17.29;58.04;100299.91;4933022;29;1257;-67
2021/01/23 03:16:51;;;;;;;;;;;;;;;17.28;58.18;100298.19;4916050;29;1040;-67
2021/01/23 03:19:17;;;;;;;;;;;;;;;17.28;58.29;100298.19;4933291;29;1226;-67
2021/01/23 03:21:44;;;;;;;;;;;;;;;17.26;57.83;100301.88;4933178;29;1238;-68
2021/01/23 03:24:10;;;;;;;;;;;;;;;17.25;58.03;100302.78;4931294;29;1332;-67
2021/01/23 03:26:36;;;;;;;;;;;;;;;17.26;58.01;100307.97;4933296;29;1063;-68
2021/01/23 03:29:03;;;;;;;;;;;;;;;17.23;58.28;100304.66;4916018;29;1256;-67
2021/01/23 03:31:29;;;;;;;;;;;;;;;17.26;57.83;100293.97;4932609;29;1061;-67
2021/01/23 03:33:56;;;;;;;;;;;;;;;17.24;58.50;100291.41;4932799;29;1898;-67
2021/01/23 03:36:25;;;;;;;;;;;;;;;17.23;58.41;100299.41;4931639;29;948;-68
2021/01/23 03:38:52;;;;;;;;;;;;;;;17.22;58.19;100297.69;4932591;29;1233;-68
2021/01/23 03:41:18;;;;;;;;;;;;;;;17.23;58.27;100304.66;4932249;29;926;-67
2021/01/23 03:43:45;;;;;;;;;;;;;;;17.23;58.09;100296.78;4915341;29;1297;-67
2021/01/23 03:46:11;;;;;;;;;;;;;;;17.24;58.03;100285.28;4932854;29;1038;-67
2021/01/23 03:48:37;;;;;;;;;;;;;;;17.23;57.93;100299.41;4931879;29;1222;-68
2021/01/23 03:51:04;;;;;;;;;;;;;;;17.22;58.06;100297.69;4932132;29;1156;-68
2021/01/23 03:53:31;;;;;;;;;;;;;;;17.22;58.13;100292.44;4932239;29;1911;-68
2021/01/23 03:55:57;;;;;;;;;;;;;;;17.21;57.99;100286.31;4914752;29;1444;-68
2021/01/23 03:58:23;;;;;;;;;;;;;;;17.21;58.37;100282.84;4932302;29;1214;-68
2021/01/23 04:00:50;;;;;;;;;;;;;;;17.22;57.91;100274.00;4932358;29;1143;-68
2021/01/23 04:03:16;;;;;;;;;;;;;;;17.22;58.10;100274.88;4930832;29;1476;-68
2021/01/23 04:05:43;;;;;;;;;;;;;;;17.23;58.10;100276.56;4932400;29;1060;-68
2021/01/23 04:08:09;;;;;;;;;;;;;;;17.19;57.88;100267.16;4932329;29;1254;-68
2021/01/23 04:10:36;;;;;;;;;;;;;;;17.21;57.96;100264.41;4932436;29;1039;-68
2021/01/23 04:13:02;;;;;;;;;;;;;;;17.19;57.97;100261.88;4931929;29;1907;-69
2021/01/23 04:15:29;;;;;;;;;;;;;;;17.23;57.92;100257.28;4931991;29;1061;-68
2021/01/23 04:17:56;;;;;;;;;;;;;;;17.19;57.64;100261.03;4931937;29;1222;-68
2021/01/23 04:20:22;;;;;;;;;;;;;;;17.18;57.80;100254.06;4931869;29;926;-69
2021/01/23 04:22:48;;;;;;;;;;;;;;;17.16;58.02;100262.06;4914678;29;1289;-68
2021/01/23 04:25:15;;;;;;;;;;;;;;;17.18;57.66;100269.84;4931984;29;1042;-68
2021/01/23 04:27:41;;;;;;;;;;;;;;;17.16;57.75;100271.72;4931702;29;1246;-68
2021/01/23 04:30:09;;;;;;;;;;;;;;;17.18;57.75;100268.06;4914499;29;1680;-68
2021/01/23 04:32:35;;;;;;;;;;;;;;;17.18;57.69;100272.47;4931710;29;1907;-68
2021/01/23 04:35:03;;;;;;;;;;;;;;;17.18;57.89;100269.84;4931664;29;1021;-69
2021/01/23 04:37:30;;;;;;;;;;;;;;;17.18;57.63;100280.38;4914580;29;1245;-66
2021/01/23 04:39:56;;;;;;;;;;;;;;;17.13;57.74;100285.06;4930161;29;1016;-66
2021/01/23 04:42:26;;;;;;;;;;;;;;;17.13;58.11;100291.19;4931622;29;1191;-67
2021/01/23 04:44:52;;;;;;;;;;;;;;;17.13;57.86;100288.56;4931357;29;1164;-66
2021/01/23 04:47:18;;;;;;;;;;;;;;;17.13;57.95;100292.97;4931499;29;831;-67
2021/01/23 04:49:44;;;;;;;;;;;;;;;17.15;57.86;100296.34;4931449;29;1249;-67
2021/01/23 04:52:11;;;;;;;;;;;;;;;17.14;57.83;100298.16;4914342;29;1911;-66
2021/01/23 04:54:41;;;;;;;;;;;;;;;17.13;57.84;100300.88;4931362;29;1293;-66
2021/01/23 04:57:08;;;;;;;;;;;;;;;17.13;57.87;100308.75;4914108;29;772;-66
2021/01/23 04:59:34;;;;;;;;;;;;;;;17.14;58.02;100299.94;4931449;29;1230;-68
2021/01/23 05:02:17;;;;;;;;;;;;;;;17.12;57.96;100297.38;4914939;29;1186;-67
2021/01/23 05:04:48;;;;;;;;;;;;;;;17.10;57.92;100301.88;4914721;29;1351;-67
2021/01/23 05:07:24;;;;;;;;;;;;;;;17.11;57.74;100302.75;4929903;29;1269;-66
2021/01/23 05:09:50;;;;;;;;;;;;;;;17.13;57.68;100292.97;4917776;29;1134;-67
2021/01/23 05:12:36;;;;;;;;;;;;;;;17.11;57.59;100276.44;4935132;29;1910;-67
2021/01/23 05:15:04;;;;;;;;;;;;;;;17.11;57.95;100285.19;4935230;29;860;-67
2021/01/23 05:17:30;;;;;;;;;;;;;;;17.10;57.75;100290.50;4933807;29;1345;-67
2021/01/23 05:19:57;;;;;;;;;;;;;;;17.11;57.52;100279.91;4918000;29;1408;-67
2021/01/23 05:22:24;;;;;;;;;;;;;;;17.11;57.87;100273.78;4935013;29;1210;-67
2021/01/23 05:24:54;;;;;;;;;;;;;;;17.09;58.06;100270.38;4935166;29;1061;-68
2021/01/23 05:27:22;;;;;;;;;;;;;;;17.09;57.93;100270.38;4934728;29;800;-68
2021/01/23 05:29:56;;;;;;;;;;;;;;;17.07;57.88;100280.16;4934984;29;1063;-67
2021/01/23 05:32:22;;;;;;;;;;;;;;;17.07;57.83;100277.53;4934855;29;1911;-68
2021/01/23 05:34:49;;;;;;;;;;;;;;;17.06;57.59;100278.44;4934849;29;1219;-69
2021/01/23 05:37:31;;;;;;;;;;;;;;;17.07;57.90;100278.38;4934844;29;811;-68
2021/01/23 05:39:57;;;;;;;;;;;;;;;17.07;57.67;100280.16;4933373;29;1329;-68
2021/01/23 05:42:23;;;;;;;;;;;;;;;17.06;57.86;100273.19;4934912;29;1252;-68
2021/01/23 05:45:05;;;;;;;;;;;;;;;17.05;58.05;100275.00;4934795;29;1054;-67
2021/01/23 05:47:31;;;;;;;;;;;;;;;17.05;58.19;100276.78;4934598;29;1230;-67
2021/01/23 05:49:57;;;;;;;;;;;;;;;17.02;58.04;100280.44;4934752;29;1164;-67
2021/01/23 05:52:24;;;;;;;;;;;;;;;17.06;58.04;100281.94;4934568;29;1906;-67
2021/01/23 05:54:50;;;;;;;;;;;;;;;17.06;57.85;100283.72;4934489;29;1055;-67
2021/01/23 05:57:16;;;;;;;;;;;;;;;17.05;57.92;100276.78;4934645;29;831;-66
2021/01/23 05:59:43;;;;;;;;;;;;;;;17.06;57.90;100276.66;4934274;29;1226;-66
2021/01/23 06:02:10;;;;;;;;;;;;;;;17.05;58.08;100287.31;4934435;29;1167;-67
2021/01/23 06:04:37;;;;;;;;;;;;;;;17.09;58.01;100283.53;4934316;29;1608;-66
2021/01/23 06:07:03;;;;;;;;;;;;;;;17.04;58.10;100273.28;4932983;29;1353;-67
2021/01/23 06:09:33;;;;;;;;;;;;;;;17.04;57.97;100267.19;4916836;29;1315;-67
2021/01/23 06:11:59;;;;;;;;;;;;;;;17.00;57.98;100266.50;4934567;29;1935;-67
2021/01/23 06:14:38;;;;;;;;;;;;;;;17.02;57.83;100261.16;4934085;29;1230;-66
2021/01/23 06:17:05;;;;;;;;;;;;;;;17.01;58.08;100264.72;4934394;29;1279;-67
2021/01/23 06:19:31;;;;;;;;;;;;;;;17.09;58.70;100265.13;4933523;29;1238;-66
2021/01/23 06:21:57;;;;;;;;;;;;;;;17.07;58.33;100261.72;4934526;29;1276;-66
2021/01/23 06:24:29;;;;;;;;;;;;;;;17.06;58.24;100270.56;4934043;29;1194;-67
2021/01/23 06:26:56;;;;;;;;;;;;;;;17.05;58.46;100267.09;4934186;29;1320;-69
2021/01/23 06:29:35;;;;;;;;;;;;;;;17.08;58.35;100284.50;4932407;29;1209;-68
2021/01/23 06:32:14;;;;;;;;;;;;;;;17.04;58.51;100282.97;4934110;29;1906;-68
2021/01/23 06:34:44;;;;;;;;;;;;;;;17.06;58.55;100281.09;4934030;29;1274;-68
2021/01/23 06:37:29;;;;;;;;;;;;;;;17.05;58.74;100279.41;4916741;29;1187;-68
2021/01/23 06:39:55;;;;;;;;;;;;;;;17.06;58.57;100291.59;4934049;29;1170;-68
2021/01/23 06:42:25;;;;;;;;;;;;;;;17.03;58.31;100290.00;4916692;29;1282;-68
2021/01/23 06:44:51;;;;;;;;;;;;;;;17.04;58.34;100291.72;4916391;29;1217;-67
2021/01/23 06:47:18;;;;;;;;;;;;;;;17.03;58.67;100290.00;4933377;29;1089;-68
2021/01/23 06:49:44;;;;;;;;;;;;;;;17.02;58.31;100290.09;4933257;29;1258;-66
2021/01/23 06:52:11;;;;;;;;;;;;;;;16.99;58.76;100300.81;4933388;29;1966;-68
2021/01/23 06:54:44;;;;;;;;;;;;;;;17.04;58.43;100298.75;4933901;29;1203;-66
2021/01/23 06:57:12;;;;;;;;;;;;;;;17.02;58.46;100290.09;4916822;29;878;-66
2021/01/23 06:59:39;;;;;;;;;;;;;;;17.01;58.33;100294.50;4931743;29;1271;-66
2021/01/23 07:02:05;;;;;;;;;;;;;;;17.00;58.67;100302.47;4933751;29;1135;-67
2021/01/23 07:04:44;;;;;;;;;;;;;;;17.00;58.43;100298.06;4933251;29;1613;-67
2021/01/23 07:07:11;;;;;;;;;;;;;;;16.99;58.53;100311.34;4933407;29;870;-68
2021/01/23 07:09:51;;;;;;;;;;;;;;;16.99;58.61;100306.91;4933130;29;1230;-69
2021/01/23 07:12:37;;;;;;;;;;;;;;;16.99;58.38;100298.19;4933193;29;1911;-68
2021/01/23 07:15:03;;;;;;;;;;;;;;;16.97;58.48;100292.13;4915930;29;1285;-68
2021/01/23 07:17:33;;;;;;;;;;;;;;;17.00;58.38;100295.44;4900290;29;1238;-68
2021/01/23 07:20:01;;;;;;;;;;;;;;;16.98;58.35;100281.53;4931756;29;1048;-67
2021/01/23 07:22:28;;;;;;;;;;;;;;;16.98;58.44;100280.69;4933211;29;1320;-69
2021/01/23 07:24:55;;;;;;;;;;;;;;;16.94;58.69;100275.59;4931963;29;1325;-68
2021/01/23 07:27:21;;;;;;;;;;;;;;;16.96;58.58;100279.94;4932889;29;772;-69
2021/01/23 07:29:49;;;;;;;;;;;;;;;16.97;58.42;100281.59;4932754;29;1196;-69
2021/01/23 07:32:18;;;;;;;;;;;;;;;16.97;58.47;100271.94;4915480;29;1963;-68
2021/01/23 07:34:55;;;;;;;;;;;;;;;16.98;58.36;100273.63;4915331;29;1392;-69
2021/01/23 07:37:40;;;;;;;;;;;;;;;17.01;58.34;100269.97;4932655;29;810;-66
2021/01/23 07:40:06;;;;;;;;;;;;;;;16.96;58.68;100270.25;4900203;29;1366;-69
2021/01/23 07:42:43;;;;;;;;;;;;;;;16.99;58.37;100269.22;4949776;23;1778;-69
2021/01/23 07:45:10;;;;;;;;;;;;;;;16.99;58.42;100280.63;4931596;29;1801;-70
2021/01/23 07:47:37;;;;;;;;;;;;;;;16.97;58.63;100281.59;4932869;29;1286;-68
2021/01/23 07:50:13;;;;;;;;;;;;;;;16.97;58.50;100271.09;4932780;29;805;-71
2021/01/23 07:52:43;;;;;;;;;;;;;;;16.98;58.41;100275.41;4932743;29;1903;-69
2021/01/23 07:55:12;;;;;;;;;;;;;;;16.96;58.50;100270.25;4932124;29;941;-68
2021/01/23 07:57:39;;;;;;;;;;;;;;;17.01;58.62;100264.72;4915494;29;1245;-67
2021/01/23 08:00:06;;;;;;;;;;;;;;;16.97;58.75;100265.81;4932464;29;769;-69
2021/01/23 08:02:52;;;;;;;;;;;;;;;16.96;59.01;100261.50;4932140;29;1257;-69
2021/01/23 08:05:19;;;;;;;;;;;;;;;16.96;59.61;100259.72;4931102;29;1227;-72
2021/01/23 08:07:46;;;;;;;;;;;;;;;16.97;58.59;100252.66;4932509;29;1230;-72
2021/01/23 08:10:20;;;;;;;;;;;;;;;16.97;58.84;100260.56;4914922;29;1231;-69
2021/01/23 08:13:03;;;;;;;;;;;;;;;16.98;58.99;100246.47;4932199;29;1915;-70
2021/01/23 08:15:29;;;;;;;;;;;;;;;16.98;59.09;100246.47;4932130;29;1527;-69
2021/01/23 08:17:56;;;;;;;;;;;;;;;17.08;59.20;100252.91;4914587;29;1233;-67
2021/01/23 08:20:29;;;;;;;;;;;;;;;17.07;59.16;100253.84;4920189;29;1714;-65
2021/01/23 08:23:00;;;;;;;;;;;;;;;17.05;59.16;100250.47;4915895;29;1368;-66
2021/01/23 08:25:28;;;;;;;;;;;;;;;17.01;58.82;100246.31;4927370;29;1229;-70
2021/01/23 08:27:56;;;;;;;;;;;;;;;17.01;58.79;100246.31;4926186;29;1276;-68
2021/01/23 08:30:23;;;;;;;;;;;;;;;17.09;58.33;100234.38;4911963;29;785;-72
2021/01/23 08:32:53;;;;;;;;;;;;;;;17.20;58.42;100231.16;4910168;29;1903;-69
2021/01/23 08:35:20;;;;;;;;;;;;;;;17.13;57.99;100209.59;4911422;29;847;-71
2021/01/23 08:37:47;;;;;;;;;;;;;;;17.22;57.66;100222.22;4925559;29;1245;-68
2021/01/23 08:40:23;;;;;;;;;;;;;;;17.25;57.85;100221.19;4897796;29;1179;-68
2021/01/23 08:42:50;;;;;;;;;;;;;;;17.29;58.66;100220.09;4930708;29;1654;-66
2021/01/23 08:45:17;;;;;;;;;;;;;;;17.48;58.45;100218.03;4929861;29;1080;-68
2021/01/23 08:47:43;;;;;;;;;;;;;;;17.52;57.31;100219.56;4930264;29;1269;-70
2021/01/23 08:50:11;;;;;;;;;;;;;;;17.72;57.64;100213.13;4928896;29;1286;-68
2021/01/23 08:52:37;;;;;;;;;;;;;;;17.64;57.29;100225.91;4913321;29;1997;-68
2021/01/23 08:55:07;;;;;;;;;;;;;;;17.56;57.85;100229.00;4930773;29;786;-68
2021/01/23 08:57:34;;;;;;;;;;;;;;;17.56;59.05;100220.25;4930921;29;1202;-69
2021/01/23 09:00:00;;;;;;;;;;;;;;;17.79;58.19;100224.97;4912745;29;1686;-68
2021/01/23 09:02:27;;;;;;;;;;;;;;;17.86;58.09;100224.50;4928641;29;1288;-69
2021/01/23 09:04:54;;;;;;;;;;;;;;;17.79;58.44;100235.50;4929484;29;851;-70
2021/01/23 09:07:20;;;;;;;;;;;;;;;17.96;58.51;100227.44;4929913;29;1117;-69
2021/01/23 09:10:09;;;;;;;;;;;;;;;17.87;57.87;100231.44;4912044;29;1606;-68
2021/01/23 09:13:33;;;;;;;;;;;;;;;17.84;58.73;100234.28;4921336;29;1910;-71
2021/01/23 09:16:00;;;;;;;;;;;;;;;17.87;58.41;100226.19;4930210;29;901;-69
2021/01/23 09:18:26;;;;;;;;;;;;;;;17.83;58.91;100237.88;4931114;29;1390;-70
2021/01/23 09:20:56;;;;;;;;;;;;;;;17.71;58.40;100225.44;4931188;29;792;-69
2021/01/23 09:23:23;;;;;;;;;;;;;;;17.60;56.57;100232.31;4929508;29;1331;-71
2021/01/23 09:25:50;;;;;;;;;;;;;;;17.66;58.07;100216.97;4931044;29;1039;-69
2021/01/23 09:28:16;;;;;;;;;;;;;;;17.71;57.65;100216.69;4937776;28;1596;-71
2021/01/23 09:30:44;;;;;;;;;;;;;;;17.71;56.84;100208.78;4947536;29;850;-71
2021/01/23 09:33:11;;;;;;;;;;;;;;;17.63;56.43;100203.97;4950285;28;2009;-74
2021/01/23 09:35:39;;;;;;;;;;;;;;;17.75;58.61;100220.84;4949988;28;819;-68
2021/01/23 09:38:05;;;;;;;;;;;;;;;17.79;57.91;100214.44;4945432;28;1218;-74
2021/01/23 09:40:32;;;;;;;;;;;;;;;17.77;56.85;100205.78;4912904;29;1145;-71
2021/01/23 09:43:00;;;;;;;;;;;;;;;17.95;58.34;100216.03;4910237;29;1437;-71
2021/01/23 09:45:27;;;;;;;;;;;;;;;17.78;55.85;100212.75;4910904;29;817;-71
2021/01/23 09:47:53;;;;;;;;;;;;;;;17.68;56.12;100214.25;4879246;29;1420;-71
2021/01/23 09:50:25;;;;;;;;;;;;;;;17.63;55.73;100214.50;4912100;29;874;-69
2021/01/23 09:52:52;;;;;;;;;;;;;;;17.61;55.16;100215.53;4894929;29;1899;-71
2021/01/23 09:55:19;;;;;;;;;;;;;;;17.63;55.42;100225.03;4914246;29;827;-71
2021/01/23 09:57:45;;;;;;;;;;;;;;;17.63;56.43;100232.13;4915581;29;1227;-70
2021/01/23 10:00:12;;;;;;;;;;;;;;;17.69;55.39;100229.13;4887506;29;1713;-69
2021/01/23 10:02:55;;;;;;;;;;;;;;;17.82;55.01;100230.91;4940260;29;1357;-75
2021/01/23 10:05:38;;;;;;;;;;;;;;;17.89;56.93;100226.97;4914203;29;1971;-70
2021/01/23 10:08:05;;;;;;;;;;;;;;;17.96;58.40;100228.25;4951497;28;1230;-69
2021/01/23 10:10:31;;;;;;;;;;;;;;;17.87;56.57;100228.81;4951601;29;855;-65
2021/01/23 10:12:57;;;;;;;;;;;;;;;17.85;49.19;100241.25;4951684;28;1969;-68
2021/01/23 10:15:29;;;;;;;;;;;;;;;17.73;52.61;100235.88;4951732;29;883;-69
2021/01/23 10:17:56;;;;;;;;;;;;;;;17.64;54.29;100258.34;4935466;29;1580;-70
2021/01/23 10:20:22;;;;;;;;;;;;;;;17.62;54.23;100244.44;4935630;29;1313;-71
2021/01/23 10:22:49;;;;;;;;;;;;;;;17.61;54.09;100249.78;4953223;28;1301;-69
2021/01/23 10:25:15;;;;;;;;;;;;;;;17.56;54.06;100252.72;4935705;29;1234;-69
2021/01/23 10:27:41;;;;;;;;;;;;;;;17.54;53.71;100258.97;4935492;28;1230;-70
2021/01/23 10:30:08;;;;;;;;;;;;;;;17.51;54.24;100246.00;4945228;29;1085;-70
2021/01/23 10:32:34;;;;;;;;;;;;;;;17.47;54.11;100247.97;4952815;28;1911;-70
2021/01/23 10:35:01;;;;;;;;;;;;;;;17.45;54.92;100244.53;4953184;29;823;-71
2021/01/23 10:37:28;;;;;;;;;;;;;;;17.43;54.97;100244.66;4953161;28;1335;-70
2021/01/23 10:39:55;;;;;;;;;;;;;;;17.41;55.69;100249.16;4953362;29;807;-70
2021/01/23 10:42:21;;;;;;;;;;;;;;;17.38;55.97;100238.81;4935515;29;1302;-70
2021/01/23 10:44:47;;;;;;;;;;;;;;;17.37;56.54;100238.91;4935451;29;1857;-70
2021/01/23 10:47:13;;;;;;;;;;;;;;;17.37;57.06;100233.63;4952826;28;1179;-70
2021/01/23 10:49:40;;;;;;;;;;;;;;;17.36;57.00;100222.25;4935827;29;1235;-69
2021/01/23 10:52:07;;;;;;;;;;;;;;;17.35;57.33;100215.31;4952559;29;1139;-68
2021/01/23 10:54:34;;;;;;;;;;;;;;;17.35;57.63;100219.72;4952333;28;1923;-69
2021/01/23 10:57:05;;;;;;;;;;;;;;;17.32;57.88;100212.84;4934868;29;1716;-69
2021/01/23 10:59:32;;;;;;;;;;;;;;;17.32;58.11;100210.22;4931932;29;1349;-69
2021/01/23 11:01:58;;;;;;;;;;;;;;;17.32;57.97;100193.56;4951057;29;926;-69
2021/01/23 11:04:25;;;;;;;;;;;;;;;17.30;58.41;100190.16;4934621;29;1313;-69
2021/01/23 11:06:51;;;;;;;;;;;;;;;17.29;58.94;100199.88;4952286;28;1182;-70
2021/01/23 11:09:17;;;;;;;;;;;;;;;17.28;58.53;100207.84;4952246;28;1324;-70
2021/01/23 11:11:44;;;;;;;;;;;;;;;17.28;58.37;100178.88;4952094;29;1060;-70
2021/01/23 11:14:10;;;;;;;;;;;;;;;17.24;58.99;100180.00;4952154;28;2230;-70
2021/01/23 11:16:36;;;;;;;;;;;;;;;17.24;58.88;100183.50;4952351;28;843;-71
2021/01/23 11:19:03;;;;;;;;;;;;;;;17.23;59.00;100175.69;4952507;28;1260;-71
2021/01/23 11:21:30;;;;;;;;;;;;;;;17.21;59.59;100161.75;4919163;29;1400;-70
2021/01/23 11:23:57;;;;;;;;;;;;;;;17.21;59.59;100185.44;4952615;28;1265;-70
2021/01/23 11:26:26;;;;;;;;;;;;;;;17.20;59.52;100168.84;4951701;28;784;-70
2021/01/23 11:28:52;;;;;;;;;;;;;;;17.19;59.63;100161.88;4934361;29;1275;-70
2021/01/23 11:31:19;;;;;;;;;;;;;;;17.20;59.77;100166.19;4934464;29;764;-72
2021/01/23 11:33:46;;;;;;;;;;;;;;;17.18;59.61;100159.31;4934026;29;1903;-70
2021/01/23 11:36:12;;;;;;;;;;;;;;;17.16;59.65;100156.78;4951738;28;1077;-68
2021/01/23 11:38:43;;;;;;;;;;;;;;;17.16;59.90;100162.03;4951622;28;1314;-69
2021/01/23 11:41:11;;;;;;;;;;;;;;;17.14;60.03;100158.66;4951079;28;741;-69
2021/01/23 11:43:37;;;;;;;;;;;;;;;17.13;60.05;100154.34;4933807;29;1478;-69
2021/01/23 11:46:03;;;;;;;;;;;;;;;17.14;60.15;100147.28;4951388;29;1076;-70
2021/01/23 11:48:31;;;;;;;;;;;;;;;17.14;60.19;100147.28;4951455;28;1265;-70
2021/01/23 11:50:57;;;;;;;;;;;;;;;17.14;60.31;100137.63;4934201;29;1254;-69
2021/01/23 11:53:23;;;;;;;;;;;;;;;17.13;60.27;100141.19;4950649;28;1916;-70
2021/01/23 11:55:50;;;;;;;;;;;;;;;17.12;60.52;100130.72;4951128;28;839;-70
2021/01/23 11:58:16;;;;;;;;;;;;;;;17.11;60.42;100126.41;4951068;28;1265;-70
2021/01/23 12:00:43;;;;;;;;;;;;;;;17.12;60.59;100128.94;4933229;29;843;-70
2021/01/23 12:03:09;;;;;;;;;;;;;;;17.10;60.41;100124.72;4933595;29;1234;-69
2021/01/23 12:05:35;;;;;;;;;;;;;;;17.10;60.70;100116.81;4950800;29;922;-71
2021/01/23 12:08:01;;;;;;;;;;;;;;;17.09;60.53;100120.38;4951359;28;1399;-68
2021/01/23 12:10:31;;;;;;;;;;;;;;;17.08;60.47;100123.97;4950595;28;842;-69
2021/01/23 12:12:59;;;;;;;;;;;;;;;17.07;60.58;100115.22;4950619;28;1914;-68
2021/01/23 12:15:26;;;;;;;;;;;;;;;17.06;60.31;100129.31;4932966;29;1309;-70
2021/01/23 12:17:53;;;;;;;;;;;;;;;17.07;60.56;100119.63;4932798;29;1383;-68
2021/01/23 12:20:21;;;;;;;;;;;;;;;17.11;59.40;100122.00;4933596;29;1053;-66
2021/01/23 12:22:48;;;;;;;;;;;;;;;16.98;52.02;100114.91;4945002;28;1465;-69
2021/01/23 12:25:15;;;;;;;;;;;;;;;16.86;49.34;100101.56;4939061;29;999;-68
2021/01/23 12:27:42;;;;;;;;;;;;;;;17.01;47.83;100109.47;4923658;29;1686;-67
2021/01/23 12:30:10;;;;;;;;;;;;;;;16.71;45.05;100106.88;4908983;29;1457;-69
2021/01/23 12:32:38;;;;;;;;;;;;;;;16.70;43.71;100106.03;4924078;29;1986;-73
2021/01/23 12:35:06;;;;;;;;;;;;;;;16.90;46.10;100103.06;4940379;28;1071;-73
2021/01/23 12:37:33;;;;;;;;;;;;;;;17.00;47.46;100097.25;4912841;29;1269;-66
2021/01/23 12:40:00;;;;;;;;;;;;;;;17.16;48.04;100104.16;4930499;29;681;-69
2021/01/23 12:42:27;;;;;;;;;;;;;;;17.15;48.70;100096.31;4912725;29;1347;-76
2021/01/23 12:44:55;;;;;;;;;;;;;;;17.16;49.33;100100.66;4912744;29;1550;-70
2021/01/23 12:47:21;;;;;;;;;;;;;;;17.27;49.78;100103.47;4899232;29;1317;-67
2021/01/23 12:53:24;;;;;;;;;;;;;;;17.28;50.72;100084.13;4885042;29;1899;-72
2021/01/23 12:55:50;;;;;;;;;;;;;;;17.28;51.11;100081.50;4924873;29;1269;-71
2021/01/23 12:58:19;;;;;;;;;;;;;;;17.30;51.29;100069.94;4912224;29;1307;-72